Time;durP1;ratioP1;P1;durP2;ratioP2;P2;SDS_P1;SDS_P2;PMS_P1;PMS_P2;Temp;Humidity;BMP_temperature;BMP_pressure;BME280_temperature;BME280_humidity;BME280_pressure;Samples;Min_cycle;Max_cycle;Signal;HPM_P1;HPM_P2
2021/10/06 00:01:03;;;;;;;7.15;2.75;;;11.20;99.90;;;;;;5039835;28;20033;-58
2021/10/06 00:03:29;;;;;;;7.60;2.03;;;11.20;99.90;;;;;;5042755;28;20025;-57
2021/10/06 00:05:54;;;;;;;7.25;2.20;;;11.20;99.90;;;;;;5046071;28;20047;-59
2021/10/06 00:08:20;;;;;;;9.02;2.50;;;11.20;99.90;;;;;;5041052;28;20033;-60
2021/10/06 00:10:46;;;;;;;7.55;2.55;;;11.20;99.90;;;;;;5044448;28;20495;-59
2021/10/06 00:13:15;;;;;;;8.23;2.60;;;11.20;99.90;;;;;;5039915;28;20036;-58
2021/10/06 00:15:44;;;;;;;4.00;1.90;;;11.10;99.90;;;;;;5044379;28;20025;-61
2021/10/06 00:18:11;;;;;;;10.60;2.05;;;11.10;99.90;;;;;;5048507;28;20025;-58
2021/10/06 00:20:37;;;;;;;6.15;2.00;;;11.10;99.90;;;;;;5036361;28;20037;-58
2021/10/06 00:23:03;;;;;;;7.75;2.00;;;11.00;99.90;;;;;;5042006;28;20036;-56
2021/10/06 00:25:28;;;;;;;4.07;1.98;;;11.00;99.90;;;;;;5050653;28;20025;-58
2021/10/06 00:27:54;;;;;;;4.65;1.88;;;10.90;99.90;;;;;;5037041;28;20079;-60
2021/10/06 00:30:19;;;;;;;6.22;2.60;;;10.80;99.90;;;;;;5042857;28;20351;-59
2021/10/06 00:32:45;;;;;;;8.30;2.25;;;10.70;99.90;;;;;;5040285;28;20084;-59
2021/10/06 00:35:10;;;;;;;4.22;1.50;;;10.70;99.90;;;;;;5042864;28;20032;-59
2021/10/06 00:37:36;;;;;;;12.57;2.00;;;10.70;99.90;;;;;;5038148;28;20111;-61
2021/10/06 00:40:04;;;;;;;9.05;2.35;;;10.60;99.90;;;;;;5040844;28;20051;-60
2021/10/06 00:42:30;;;;;;;4.85;1.88;;;10.50;99.90;;;;;;5044598;28;20029;-59
2021/10/06 00:44:55;;;;;;;9.10;1.90;;;10.50;99.90;;;;;;5042497;28;20091;-60
2021/10/06 00:47:21;;;;;;;9.65;2.97;;;10.40;99.90;;;;;;5038077;28;20030;-62
2021/10/06 00:49:46;;;;;;;8.35;2.33;;;10.40;99.90;;;;;;5039330;28;20026;-60
2021/10/06 00:52:14;;;;;;;10.57;2.22;;;10.30;99.90;;;;;;5042552;28;20119;-61
2021/10/06 00:54:40;;;;;;;10.90;2.80;;;10.30;99.90;;;;;;5039039;28;20032;-59
2021/10/06 00:57:06;;;;;;;7.68;2.17;;;10.30;99.90;;;;;;5046030;28;20040;-57
2021/10/06 00:59:31;;;;;;;11.73;2.50;;;10.30;99.90;;;;;;5040699;28;20025;-59
2021/10/06 01:01:57;;;;;;;6.55;2.15;;;10.30;99.90;;;;;;5065613;23;20052;-61
2021/10/06 01:04:23;;;;;;;10.73;2.50;;;10.30;99.90;;;;;;5049195;28;20025;-61
2021/10/06 01:06:48;;;;;;;5.45;1.90;;;10.30;99.90;;;;;;5048927;28;20040;-61
2021/10/06 01:09:14;;;;;;;10.18;2.80;;;10.40;99.90;;;;;;5043140;28;20033;-61
2021/10/06 01:11:40;;;;;;;10.13;2.03;;;10.40;99.90;;;;;;5049184;28;20036;-58
2021/10/06 01:14:06;;;;;;;6.20;2.00;;;10.40;99.90;;;;;;5066759;28;20028;-59
2021/10/06 01:16:32;;;;;;;9.18;2.47;;;10.50;99.90;;;;;;5065599;28;20060;-61
2021/10/06 01:18:58;;;;;;;11.02;3.60;;;10.50;99.90;;;;;;5067467;28;20056;-60
2021/10/06 01:21:24;;;;;;;6.15;2.10;;;10.50;99.90;;;;;;5068803;28;20625;-60
2021/10/06 01:23:50;;;;;;;15.13;3.20;;;10.60;99.90;;;;;;5063921;28;20029;-61
2021/10/06 01:26:20;;;;;;;7.15;1.88;;;10.60;99.90;;;;;;5064912;28;20044;-60
2021/10/06 01:28:50;;;;;;;5.50;2.08;;;10.60;99.90;;;;;;5064130;28;20052;-61
2021/10/06 01:31:16;;;;;;;9.70;1.98;;;10.60;99.90;;;;;;5069270;28;20030;-60
2021/10/06 01:33:43;;;;;;;11.55;1.98;;;10.60;99.90;;;;;;5069349;28;20536;-60
2021/10/06 01:36:09;;;;;;;3.35;1.88;;;10.70;99.90;;;;;;5065743;28;20036;-57
2021/10/06 01:38:35;;;;;;;8.35;2.75;;;10.70;99.90;;;;;;5067847;28;20400;-61
2021/10/06 01:41:00;;;;;;;8.63;1.98;;;10.70;99.90;;;;;;5072447;28;20020;-61
2021/10/06 01:43:26;;;;;;;6.50;2.47;;;10.70;99.90;;;;;;5067137;28;20036;-61
2021/10/06 01:45:52;;;;;;;9.70;2.25;;;10.70;99.90;;;;;;5066634;28;20142;-61
2021/10/06 01:48:18;;;;;;;3.42;1.60;;;10.70;99.90;;;;;;5068739;28;20489;-62
2021/10/06 01:50:44;;;;;;;7.00;1.98;;;10.80;99.90;;;;;;5066684;28;20511;-60
2021/10/06 01:53:11;;;;;;;4.18;1.77;;;10.70;99.90;;;;;;5065927;28;20384;-60
2021/10/06 01:55:38;;;;;;;4.93;1.48;;;10.80;99.90;;;;;;5066918;28;20046;-61
2021/10/06 01:58:11;;;;;;;6.80;1.58;;;10.70;99.90;;;;;;5064006;28;20388;-61
2021/10/06 02:00:38;;;;;;;7.95;1.90;;;10.70;99.90;;;;;;5057705;28;20028;-59
2021/10/06 02:03:04;;;;;;;11.23;2.08;;;10.70;99.90;;;;;;5026363;28;1044109;-61
2021/10/06 02:05:33;;;;;;;8.50;2.03;;;10.70;99.90;;;;;;5065499;28;20025;-62
2021/10/06 02:08:01;;;;;;;3.63;1.83;;;10.70;99.90;;;;;;5065981;28;20095;-61
2021/10/06 02:10:27;;;;;;;3.92;1.60;;;10.70;99.90;;;;;;5063396;28;20506;-58
2021/10/06 02:12:52;;;;;;;10.65;1.80;;;10.70;99.90;;;;;;5064317;28;20032;-61
2021/10/06 02:15:18;;;;;;;8.80;2.20;;;10.70;99.90;;;;;;5059998;28;20048;-61
2021/10/06 02:17:44;;;;;;;7.15;1.65;;;10.80;99.90;;;;;;5061226;28;20020;-61
2021/10/06 02:20:10;;;;;;;6.68;1.58;;;10.80;99.90;;;;;;5066838;28;20032;-60
2021/10/06 02:22:37;;;;;;;5.72;1.90;;;10.80;99.90;;;;;;5060141;28;20025;-60
2021/10/06 02:25:03;;;;;;;8.43;1.50;;;10.90;99.90;;;;;;5069620;28;20094;-61
2021/10/06 02:27:29;;;;;;;8.85;1.98;;;11.00;99.90;;;;;;5066631;28;20067;-61
2021/10/06 02:29:54;;;;;;;6.55;1.90;;;11.00;99.90;;;;;;5064817;28;20064;-62
2021/10/06 02:32:20;;;;;;;10.00;1.83;;;11.00;99.90;;;;;;5066847;28;20085;-61
2021/10/06 02:34:46;;;;;;;4.88;1.48;;;11.10;99.90;;;;;;5063759;28;20050;-59
2021/10/06 02:37:11;;;;;;;8.95;1.80;;;11.10;99.90;;;;;;5066810;28;20063;-60
2021/10/06 02:39:37;;;;;;;4.70;1.40;;;11.10;99.90;;;;;;5063829;28;20412;-61
2021/10/06 02:42:03;;;;;;;8.25;1.63;;;11.10;99.90;;;;;;5067396;28;20033;-60
2021/10/06 02:44:28;;;;;;;4.72;1.38;;;11.10;99.90;;;;;;5063909;28;20033;-60
2021/10/06 02:46:54;;;;;;;7.60;2.03;;;11.10;99.90;;;;;;5065809;28;20041;-60
2021/10/06 02:49:19;;;;;;;15.02;2.15;;;11.10;99.90;;;;;;5065471;28;20492;-61
2021/10/06 02:51:45;;;;;;;11.93;1.73;;;11.10;99.90;;;;;;5065876;28;20242;-60
2021/10/06 02:54:10;;;;;;;9.60;1.80;;;11.00;99.90;;;;;;5057782;28;20081;-60
2021/10/06 02:56:36;;;;;;;4.43;1.55;;;11.00;99.90;;;;;;5060456;28;20126;-60
2021/10/06 02:59:01;;;;;;;9.65;2.25;;;11.00;99.90;;;;;;5058651;28;20448;-58
2021/10/06 03:01:27;;;;;;;6.60;1.60;;;10.90;99.90;;;;;;5067761;28;20609;-60
2021/10/06 03:03:53;;;;;;;4.53;1.30;;;10.80;99.90;;;;;;5064287;28;20059;-60
2021/10/06 03:06:19;;;;;;;13.88;1.75;;;10.80;99.90;;;;;;5069289;28;20079;-61
2021/10/06 03:08:44;;;;;;;7.65;1.40;;;10.80;99.90;;;;;;5059257;28;20052;-61
2021/10/06 03:11:10;;;;;;;12.30;1.48;;;10.90;99.90;;;;;;5064554;28;20020;-60
2021/10/06 03:13:35;;;;;;;7.28;1.50;;;10.90;99.90;;;;;;5068549;28;20114;-61
2021/10/06 03:16:01;;;;;;;15.85;1.80;;;11.00;99.90;;;;;;5065829;28;20032;-61
2021/10/06 03:18:27;;;;;;;10.35;2.10;;;11.00;99.90;;;;;;5062081;28;20040;-60
2021/10/06 03:20:55;;;;;;;8.70;1.80;;;11.00;99.90;;;;;;5067816;28;20041;-59
2021/10/06 03:23:21;;;;;;;9.68;1.95;;;11.00;99.90;;;;;;5061058;28;20040;-61
2021/10/06 03:25:47;;;;;;;10.00;2.00;;;11.00;99.90;;;;;;5065356;28;20040;-60
2021/10/06 03:28:13;;;;;;;10.52;1.85;;;11.00;99.90;;;;;;5067694;28;20017;-59
2021/10/06 03:30:39;;;;;;;16.50;2.47;;;11.10;99.90;;;;;;5064381;28;20100;-60
2021/10/06 03:33:05;;;;;;;15.18;3.00;;;11.10;99.90;;;;;;5063649;28;20025;-60
2021/10/06 03:35:31;;;;;;;10.15;1.92;;;11.30;99.90;;;;;;5067187;28;20452;-60
2021/10/06 03:37:56;;;;;;;13.63;2.10;;;11.20;99.90;;;;;;5060011;28;20037;-59
2021/10/06 03:40:22;;;;;;;7.53;1.80;;;11.10;99.90;;;;;;5062398;28;20025;-59
2021/10/06 03:42:48;;;;;;;11.27;2.35;;;11.10;99.90;;;;;;5068088;28;20021;-60
2021/10/06 03:45:14;;;;;;;11.80;2.17;;;11.00;99.90;;;;;;5054224;28;20056;-60
2021/10/06 03:47:41;;;;;;;15.18;1.98;;;11.00;99.90;;;;;;5056721;28;20043;-60
2021/10/06 03:50:08;;;;;;;7.90;2.17;;;10.90;99.90;;;;;;5060553;28;20025;-57
2021/10/06 03:52:34;;;;;;;17.80;2.38;;;10.90;99.90;;;;;;5053583;28;20027;-60
2021/10/06 03:54:59;;;;;;;8.20;1.88;;;10.90;99.90;;;;;;5068266;28;20108;-60
2021/10/06 03:57:25;;;;;;;5.85;1.90;;;10.90;99.90;;;;;;5063102;28;20028;-60
2021/10/06 03:59:50;;;;;;;11.05;2.17;;;10.90;99.90;;;;;;5051235;28;20033;-59
2021/10/06 04:02:16;;;;;;;7.10;2.20;;;10.80;99.90;;;;;;5066704;28;20033;-58
2021/10/06 04:04:42;;;;;;;18.05;1.98;;;10.80;99.90;;;;;;5062779;28;20139;-61
2021/10/06 04:07:07;;;;;;;9.13;2.10;;;10.80;99.90;;;;;;5066098;28;20476;-60
2021/10/06 04:09:33;;;;;;;26.05;6.60;;;10.80;99.90;;;;;;5065781;28;20100;-60
2021/10/06 04:12:00;;;;;;;7.72;2.10;;;10.80;99.90;;;;;;5070175;28;20024;-60
2021/10/06 04:14:25;;;;;;;7.80;1.70;;;10.90;99.90;;;;;;5064996;28;20054;-60
2021/10/06 04:16:51;;;;;;;8.30;2.30;;;10.90;99.90;;;;;;5066732;28;20040;-58
2021/10/06 04:19:16;;;;;;;8.70;2.33;;;11.00;99.90;;;;;;5060546;28;20037;-57
2021/10/06 04:21:42;;;;;;;11.70;1.80;;;11.10;99.90;;;;;;5067261;28;20113;-60
2021/10/06 04:24:08;;;;;;;8.07;1.50;;;11.10;99.90;;;;;;5067072;28;20036;-59
2021/10/06 04:26:33;;;;;;;6.97;1.45;;;11.10;99.90;;;;;;5071151;28;20033;-60
2021/10/06 04:28:59;;;;;;;9.35;1.85;;;11.20;99.90;;;;;;5064394;28;20499;-60
2021/10/06 04:31:24;;;;;;;7.18;1.50;;;11.20;99.90;;;;;;5066056;28;20061;-60
2021/10/06 04:33:50;;;;;;;8.82;2.33;;;11.20;99.90;;;;;;5065733;28;20100;-60
2021/10/06 04:36:16;;;;;;;9.63;1.98;;;11.20;99.90;;;;;;5068284;28;20108;-60
2021/10/06 04:38:42;;;;;;;8.20;1.63;;;11.20;99.90;;;;;;5062789;28;20041;-57
2021/10/06 04:41:08;;;;;;;10.43;2.03;;;11.30;99.90;;;;;;5070411;28;20040;-58
2021/10/06 04:43:34;;;;;;;10.68;1.85;;;11.30;99.90;;;;;;5070880;28;20066;-61
2021/10/06 04:45:59;;;;;;;7.45;1.42;;;11.30;99.90;;;;;;5068980;28;20069;-61
2021/10/06 04:48:25;;;;;;;6.60;2.00;;;11.30;99.90;;;;;;5069688;28;20107;-60
2021/10/06 04:50:51;;;;;;;6.50;1.83;;;11.30;99.90;;;;;;5061169;28;20403;-57
2021/10/06 04:53:17;;;;;;;6.05;1.90;;;11.30;99.90;;;;;;5064665;28;20024;-60
2021/10/06 04:55:43;;;;;;;7.15;1.70;;;11.30;99.90;;;;;;5070330;28;20049;-60
2021/10/06 04:58:09;;;;;;;14.85;2.45;;;11.30;99.90;;;;;;5070105;28;20035;-58
2021/10/06 05:00:35;;;;;;;8.35;1.92;;;11.20;99.90;;;;;;5066621;28;20537;-60
2021/10/06 05:03:12;;;;;;;17.27;2.00;;;11.20;99.90;;;;;;5070280;28;20085;-60
2021/10/06 05:05:39;;;;;;;5.40;1.70;;;11.20;99.90;;;;;;5067466;28;20032;-60
2021/10/06 05:08:06;;;;;;;4.97;1.70;;;11.30;99.90;;;;;;5069468;28;20024;-61
2021/10/06 05:10:32;;;;;;;5.80;1.80;;;11.30;99.90;;;;;;5068295;28;20063;-59
2021/10/06 05:12:58;;;;;;;12.52;2.10;;;11.20;99.90;;;;;;5057769;28;20048;-60
2021/10/06 05:15:23;;;;;;;10.10;2.42;;;11.20;99.90;;;;;;5067946;28;20404;-59
2021/10/06 05:17:49;;;;;;;7.35;1.75;;;11.20;99.90;;;;;;5067594;28;20055;-60
2021/10/06 05:20:15;;;;;;;6.55;1.60;;;11.30;99.90;;;;;;5063695;28;20452;-59
2021/10/06 05:22:40;;;;;;;13.48;1.58;;;11.20;99.90;;;;;;5069495;28;20091;-57
2021/10/06 05:25:06;;;;;;;5.75;1.42;;;11.30;99.90;;;;;;5060762;28;20392;-60
2021/10/06 05:27:33;;;;;;;9.07;1.60;;;11.30;99.90;;;;;;5077831;28;20028;-58
2021/10/06 05:30:06;;;;;;;4.78;1.38;;;11.30;99.90;;;;;;5070772;28;20507;-60
2021/10/06 05:32:32;;;;;;;6.95;1.33;;;11.30;99.90;;;;;;5066917;28;20377;-60
2021/10/06 05:34:58;;;;;;;7.00;2.00;;;11.30;99.90;;;;;;5061646;28;20024;-60
2021/10/06 05:37:24;;;;;;;11.00;1.52;;;11.30;99.90;;;;;;5066963;28;20032;-59
2021/10/06 05:39:49;;;;;;;5.75;1.48;;;11.30;99.90;;;;;;5052359;28;20029;-60
2021/10/06 05:42:15;;;;;;;8.02;1.30;;;11.30;99.90;;;;;;5055115;28;20086;-60
2021/10/06 05:44:40;;;;;;;8.88;1.58;;;11.20;99.90;;;;;;5051186;28;20029;-60
2021/10/06 05:47:06;;;;;;;6.22;1.38;;;11.30;99.90;;;;;;5050625;28;20392;-60
2021/10/06 05:49:32;;;;;;;5.32;1.45;;;11.20;99.90;;;;;;5051498;28;20017;-60
2021/10/06 05:51:57;;;;;;;8.23;1.52;;;11.20;99.90;;;;;;5052418;28;20033;-61
2021/10/06 05:54:23;;;;;;;6.13;1.70;;;11.20;99.90;;;;;;5063106;28;20131;-61
2021/10/06 05:56:48;;;;;;;8.77;1.30;;;11.20;99.90;;;;;;5059714;28;20162;-61
2021/10/06 05:59:14;;;;;;;6.65;1.23;;;11.30;99.90;;;;;;5057825;28;20107;-60
2021/10/06 06:01:39;;;;;;;4.78;1.17;;;11.20;99.90;;;;;;5057461;28;20171;-60
2021/10/06 06:04:05;;;;;;;7.63;1.30;;;11.30;99.90;;;;;;5065467;28;20107;-61
2021/10/06 06:06:30;;;;;;;6.03;1.33;;;11.30;99.90;;;;;;5061164;28;20029;-61
2021/10/06 06:08:56;;;;;;;7.53;1.88;;;11.40;99.90;;;;;;5068903;28;20040;-58
2021/10/06 06:11:22;;;;;;;8.35;1.30;;;11.50;99.90;;;;;;5071494;28;20020;-59
2021/10/06 06:13:51;;;;;;;6.97;1.20;;;11.60;99.90;;;;;;5062658;28;20032;-61
2021/10/06 06:16:16;;;;;;;12.40;2.83;;;11.70;99.90;;;;;;5054086;28;20033;-61
2021/10/06 06:18:42;;;;;;;7.35;1.70;;;11.70;99.90;;;;;;5051002;28;20118;-60
2021/10/06 06:21:08;;;;;;;6.53;1.60;;;11.80;99.90;;;;;;5056022;28;20032;-61
2021/10/06 06:23:34;;;;;;;6.45;1.33;;;11.90;99.90;;;;;;5050987;28;20396;-61
2021/10/06 06:25:59;;;;;;;10.75;1.77;;;11.90;99.90;;;;;;5055691;28;20419;-61
2021/10/06 06:28:25;;;;;;;8.55;1.58;;;12.00;99.90;;;;;;5065166;28;20021;-60
2021/10/06 06:30:51;;;;;;;10.88;1.75;;;12.00;99.90;;;;;;5066109;28;20561;-60
2021/10/06 06:33:16;;;;;;;9.68;1.48;;;12.10;99.90;;;;;;5069529;28;20020;-57
2021/10/06 06:35:42;;;;;;;5.32;1.42;;;12.20;99.90;;;;;;5066598;28;20086;-60
2021/10/06 06:38:07;;;;;;;11.45;1.77;;;12.20;99.90;;;;;;5057114;28;20071;-57
2021/10/06 06:40:33;;;;;;;9.52;1.38;;;12.30;99.90;;;;;;5065902;28;20040;-60
2021/10/06 06:42:58;;;;;;;7.72;1.42;;;12.40;99.90;;;;;;5056549;28;20025;-59
2021/10/06 06:45:24;;;;;;;9.98;1.77;;;12.40;99.90;;;;;;5065843;28;20020;-58
2021/10/06 06:47:49;;;;;;;6.95;1.58;;;12.50;99.90;;;;;;5051687;28;20040;-59
2021/10/06 06:50:17;;;;;;;8.20;2.53;;;12.50;99.90;;;;;;5056487;28;20467;-60
2021/10/06 06:52:42;;;;;;;10.32;2.33;;;12.50;99.90;;;;;;5054117;28;20046;-58
2021/10/06 06:55:08;;;;;;;15.43;1.77;;;12.50;99.90;;;;;;5063316;28;20024;-59
2021/10/06 06:57:33;;;;;;;13.38;2.28;;;12.60;99.90;;;;;;5064645;28;20110;-59
2021/10/06 06:59:59;;;;;;;5.88;1.38;;;12.50;99.90;;;;;;5050318;28;20048;-60
2021/10/06 07:02:25;;;;;;;7.18;1.20;;;12.50;99.90;;;;;;5082252;23;20052;-57
2021/10/06 07:04:50;;;;;;;11.43;1.75;;;12.50;99.90;;;;;;5066083;28;20035;-59
2021/10/06 07:07:16;;;;;;;9.07;1.90;;;12.40;99.90;;;;;;5069311;28;20508;-59
2021/10/06 07:09:49;;;;;;;8.13;1.50;;;12.40;99.90;;;;;;5068819;28;20033;-59
2021/10/06 07:12:20;;;;;;;12.70;1.40;;;12.40;99.90;;;;;;5069157;28;20016;-60
2021/10/06 07:14:47;;;;;;;9.98;1.42;;;12.30;99.90;;;;;;5069181;28;20029;-59
2021/10/06 07:17:13;;;;;;;9.90;1.65;;;12.20;99.90;;;;;;5068642;28;20457;-60
2021/10/06 07:19:39;;;;;;;9.02;1.77;;;12.20;99.90;;;;;;5068678;28;20025;-59
2021/10/06 07:22:05;;;;;;;16.33;2.38;;;12.10;99.90;;;;;;5068422;28;20112;-60
2021/10/06 07:24:31;;;;;;;9.00;1.55;;;12.00;99.90;;;;;;5068557;28;20457;-59
2021/10/06 07:26:58;;;;;;;9.63;1.67;;;12.00;99.90;;;;;;5069053;28;20056;-60
2021/10/06 07:29:24;;;;;;;6.68;1.50;;;11.90;99.90;;;;;;5068715;28;20078;-60
2021/10/06 07:31:50;;;;;;;10.52;1.90;;;11.90;99.90;;;;;;5068253;28;20033;-61
2021/10/06 07:34:15;;;;;;;8.93;2.00;;;11.90;99.90;;;;;;5068022;28;20028;-61
2021/10/06 07:36:41;;;;;;;11.60;1.90;;;11.90;99.90;;;;;;5068743;28;20496;-60
2021/10/06 07:39:07;;;;;;;5.55;1.60;;;11.90;99.90;;;;;;5068943;28;20111;-60
2021/10/06 07:41:33;;;;;;;16.20;2.00;;;11.90;99.90;;;;;;5069190;28;20099;-59
2021/10/06 07:43:59;;;;;;;7.53;2.22;;;11.80;99.90;;;;;;5070708;28;20465;-60
2021/10/06 07:46:24;;;;;;;7.35;1.75;;;11.90;99.90;;;;;;5072194;28;20107;-58
2021/10/06 07:48:50;;;;;;;14.65;3.08;;;11.90;99.90;;;;;;5072542;28;20419;-60
2021/10/06 07:51:16;;;;;;;9.30;2.00;;;11.90;99.90;;;;;;5072772;28;20021;-59
2021/10/06 07:53:42;;;;;;;12.57;2.03;;;11.90;99.90;;;;;;5072082;28;20207;-60
2021/10/06 07:56:07;;;;;;;6.43;1.50;;;12.00;99.90;;;;;;5072080;28;20503;-60
2021/10/06 07:58:33;;;;;;;8.57;1.83;;;12.10;99.90;;;;;;5070606;28;20067;-58
2021/10/06 08:01:00;;;;;;;8.60;1.45;;;12.10;99.90;;;;;;5073607;28;20032;-57
2021/10/06 08:03:26;;;;;;;9.30;1.77;;;12.10;99.90;;;;;;5073923;28;20064;-59
2021/10/06 08:05:52;;;;;;;8.63;1.48;;;12.20;99.90;;;;;;5073267;28;20056;-58
2021/10/06 08:08:17;;;;;;;12.90;2.25;;;12.20;99.90;;;;;;5073476;28;20077;-58
2021/10/06 08:10:43;;;;;;;12.13;1.70;;;12.20;99.90;;;;;;5073573;28;20078;-59
2021/10/06 08:13:08;;;;;;;9.35;1.27;;;12.20;99.90;;;;;;5073715;28;20025;-60
2021/10/06 08:15:35;;;;;;;12.55;1.50;;;12.20;99.90;;;;;;5073130;28;20032;-60
2021/10/06 08:18:01;;;;;;;13.02;1.83;;;12.20;99.90;;;;;;5073542;28;20391;-61
2021/10/06 08:20:32;;;;;;;12.52;1.52;;;12.20;99.90;;;;;;5071650;28;20032;-61
2021/10/06 08:23:01;;;;;;;6.78;1.58;;;12.30;99.90;;;;;;5068451;28;20037;-60
2021/10/06 08:25:27;;;;;;;7.15;1.35;;;12.30;99.90;;;;;;5072677;28;20078;-60
2021/10/06 08:27:56;;;;;;;11.98;1.55;;;12.30;99.90;;;;;;5080664;28;20241;-61
2021/10/06 08:30:22;;;;;;;6.50;1.20;;;12.40;99.90;;;;;;5073627;28;20021;-58
2021/10/06 08:32:48;;;;;;;13.30;2.05;;;12.50;99.90;;;;;;5073216;28;20043;-59
2021/10/06 08:35:13;;;;;;;7.78;1.55;;;12.50;99.90;;;;;;5073080;28;20488;-60
2021/10/06 08:37:39;;;;;;;11.02;1.50;;;12.50;99.90;;;;;;5072789;28;20090;-60
2021/10/06 08:40:05;;;;;;;8.45;1.13;;;12.60;99.90;;;;;;5073415;28;20033;-59
2021/10/06 08:42:32;;;;;;;9.40;1.40;;;12.60;99.90;;;;;;5073029;28;20032;-61
2021/10/06 08:45:06;;;;;;;6.68;1.35;;;12.70;99.90;;;;;;5072940;28;20116;-61
2021/10/06 08:47:38;;;;;;;3.88;1.55;;;12.70;99.90;;;;;;5072913;28;20103;-59
2021/10/06 08:50:10;;;;;;;7.90;1.40;;;12.80;99.90;;;;;;5072986;28;20032;-61
2021/10/06 08:52:36;;;;;;;8.00;1.42;;;12.80;99.90;;;;;;5072981;28;20028;-59
2021/10/06 08:55:03;;;;;;;8.45;1.40;;;12.90;99.90;;;;;;5071675;28;20160;-59
2021/10/06 08:57:28;;;;;;;7.55;1.45;;;12.90;99.90;;;;;;5071209;28;20052;-61
2021/10/06 08:59:54;;;;;;;6.07;1.17;;;12.90;99.90;;;;;;5073546;28;20067;-60
2021/10/06 09:02:19;;;;;;;6.40;1.25;;;13.00;99.90;;;;;;5074000;28;20403;-61
2021/10/06 09:04:48;;;;;;;3.17;1.00;;;12.90;99.90;;;;;;5072737;28;20033;-60
2021/10/06 09:07:14;;;;;;;7.57;1.55;;;13.00;99.90;;;;;;5072976;28;20479;-59
2021/10/06 09:09:40;;;;;;;7.30;1.00;;;13.10;99.90;;;;;;5072857;28;20071;-61
2021/10/06 09:12:14;;;;;;;5.22;0.90;;;13.10;99.90;;;;;;5072547;28;20055;-61
2021/10/06 09:14:45;;;;;;;1.20;0.80;;;13.10;99.90;;;;;;5072762;28;20027;-61
2021/10/06 09:17:13;;;;;;;6.50;0.98;;;13.00;99.90;;;;;;5072462;28;20041;-61
2021/10/06 09:19:53;;;;;;;5.65;0.85;;;13.00;99.90;;;;;;5071779;28;20454;-61
2021/10/06 09:22:32;;;;;;;4.63;1.08;;;13.00;99.90;;;;;;5071945;28;20027;-60
2021/10/06 09:25:02;;;;;;;7.07;0.95;;;13.00;99.90;;;;;;5066142;28;20527;-61
2021/10/06 09:27:30;;;;;;;7.70;1.25;;;13.00;99.90;;;;;;5071559;28;20115;-60
2021/10/06 09:29:59;;;;;;;9.60;1.67;;;13.00;99.90;;;;;;5070848;28;20111;-60
2021/10/06 09:32:30;;;;;;;5.40;0.98;;;13.00;99.90;;;;;;5071248;28;20023;-60
2021/10/06 09:34:59;;;;;;;6.70;1.02;;;12.80;99.90;;;;;;5071980;28;20392;-60
2021/10/06 09:37:26;;;;;;;5.80;1.15;;;12.60;99.90;;;;;;5071857;28;20111;-60
2021/10/06 09:39:52;;;;;;;5.13;0.90;;;12.50;99.90;;;;;;5072077;28;20036;-58
2021/10/06 09:42:17;;;;;;;9.48;1.17;;;12.40;99.90;;;;;;5071522;28;20033;-60
2021/10/06 09:44:55;;;;;;;4.00;0.85;;;12.40;99.90;;;;;;5065674;28;20037;-60
2021/10/06 09:47:21;;;;;;;2.85;0.80;;;12.40;99.90;;;;;;5066290;28;20057;-60
2021/10/06 09:49:54;;;;;;;8.40;1.05;;;12.40;99.90;;;;;;5071162;28;20085;-62
2021/10/06 09:52:24;;;;;;;3.08;0.80;;;12.50;99.90;;;;;;5070231;28;20505;-61
2021/10/06 09:54:56;;;;;;;4.60;0.75;;;12.60;99.90;;;;;;5070884;28;20498;-60
2021/10/06 09:57:29;;;;;;;4.60;0.65;;;12.70;99.90;;;;;;5071348;28;20024;-62
2021/10/06 09:59:57;;;;;;;7.05;0.98;;;12.70;99.90;;;;;;5071611;28;20020;-61
2021/10/06 10:02:24;;;;;;;7.32;1.10;;;12.70;99.90;;;;;;5065388;28;20028;-60
2021/10/06 10:04:50;;;;;;;4.00;1.02;;;12.70;99.90;;;;;;5071502;28;20021;-61
2021/10/06 10:07:16;;;;;;;6.70;1.42;;;12.60;99.90;;;;;;5071231;28;20039;-62
2021/10/06 10:09:43;;;;;;;5.40;1.08;;;12.60;99.90;;;;;;5071598;28;20031;-61
2021/10/06 10:12:09;;;;;;;6.93;1.00;;;12.50;99.90;;;;;;5070962;28;20047;-61
2021/10/06 10:14:35;;;;;;;4.10;1.05;;;12.50;99.90;;;;;;5066953;28;20396;-58
2021/10/06 10:17:00;;;;;;;6.15;0.70;;;12.50;99.90;;;;;;5071237;28;20112;-62
2021/10/06 10:19:27;;;;;;;4.85;1.10;;;12.40;99.90;;;;;;5070975;28;20037;-62
2021/10/06 10:21:54;;;;;;;3.25;0.73;;;12.50;99.90;;;;;;5070648;28;20108;-62
2021/10/06 10:24:25;;;;;;;7.55;1.15;;;12.60;99.90;;;;;;5070710;28;20036;-62
2021/10/06 10:26:58;;;;;;;2.97;1.30;;;12.60;99.90;;;;;;5070901;28;20033;-63
2021/10/06 10:29:34;;;;;;;3.75;0.77;;;12.60;99.90;;;;;;5060886;28;20032;-62
2021/10/06 10:32:06;;;;;;;6.15;1.85;;;12.70;99.90;;;;;;5065983;28;20116;-61
2021/10/06 10:35:08;;;;;;;4.78;0.82;;;12.80;99.90;;;;;;5070939;28;20399;-62
2021/10/06 10:37:59;;;;;;;1.90;0.90;;;12.70;99.90;;;;;;5071130;28;20512;-60
2021/10/06 10:40:42;;;;;;;5.05;1.02;;;12.80;99.90;;;;;;5065103;28;20419;-61
2021/10/06 10:43:19;;;;;;;7.40;0.73;;;12.80;99.90;;;;;;5071012;28;20134;-62
2021/10/06 10:45:51;;;;;;;2.60;0.75;;;12.80;99.90;;;;;;5070759;28;20029;-57
2021/10/06 10:48:42;;;;;;;2.45;0.70;;;12.90;99.90;;;;;;5070130;28;20040;-61
2021/10/06 10:51:09;;;;;;;3.42;0.80;;;12.90;99.90;;;;;;5065746;28;20071;-61
2021/10/06 10:53:52;;;;;;;3.35;1.00;;;12.90;99.90;;;;;;5070869;28;20021;-60
2021/10/06 10:56:26;;;;;;;6.20;1.27;;;12.90;99.90;;;;;;5070858;28;20082;-61
2021/10/06 10:59:07;;;;;;;2.45;0.80;;;12.90;99.90;;;;;;5069490;28;20114;-61
2021/10/06 11:01:41;;;;;;;3.92;0.60;;;13.00;99.90;;;;;;5066449;28;20044;-61
2021/10/06 11:04:17;;;;;;;2.38;1.00;;;13.00;99.90;;;;;;5068884;28;20569;-62
2021/10/06 11:06:46;;;;;;;3.65;1.00;;;13.00;99.90;;;;;;5068930;28;20115;-61
2021/10/06 11:09:30;;;;;;;1.60;0.50;;;13.00;99.90;;;;;;5066586;28;20384;-62
2021/10/06 11:12:04;;;;;;;1.13;0.70;;;13.10;99.90;;;;;;5067124;28;20033;-62
2021/10/06 11:14:31;;;;;;;2.47;0.60;;;13.10;99.90;;;;;;5066504;28;20032;-61
2021/10/06 11:17:10;;;;;;;1.48;0.63;;;13.20;99.90;;;;;;5067066;28;20037;-59
2021/10/06 11:19:54;;;;;;;1.80;0.60;;;13.20;99.90;;;;;;5068040;28;20020;-60
2021/10/06 11:22:23;;;;;;;1.35;0.50;;;13.20;99.90;;;;;;5072499;28;20029;-60
2021/10/06 11:25:09;;;;;;;1.33;0.60;;;13.30;99.90;;;;;;5074870;28;20033;-61
2021/10/06 11:27:47;;;;;;;2.58;0.75;;;13.40;99.90;;;;;;5073580;28;20590;-62
2021/10/06 11:30:15;;;;;;;5.43;1.77;;;13.40;99.90;;;;;;5073126;28;20411;-63
2021/10/06 11:32:47;;;;;;;1.63;0.60;;;13.50;99.90;;;;;;5074298;28;20031;-60
2021/10/06 11:35:14;;;;;;;1.70;0.77;;;13.50;99.90;;;;;;5073448;28;20514;-58
2021/10/06 11:37:40;;;;;;;4.15;0.65;;;13.50;99.90;;;;;;5064944;28;20485;-58
2021/10/06 11:40:17;;;;;;;5.30;0.75;;;13.50;99.90;;;;;;5073173;28;20028;-60
2021/10/06 11:42:43;;;;;;;2.58;1.27;;;13.40;99.90;;;;;;5074340;28;20064;-61
2021/10/06 11:45:23;;;;;;;1.40;0.80;;;13.40;99.90;;;;;;5070956;28;20045;-58
2021/10/06 11:47:49;;;;;;;3.78;0.63;;;13.40;99.90;;;;;;5073298;28;20035;-59
2021/10/06 11:50:15;;;;;;;2.17;0.80;;;13.40;99.90;;;;;;5079214;28;20025;-60
2021/10/06 11:52:40;;;;;;;3.47;0.80;;;13.40;99.90;;;;;;5073472;28;20488;-60
2021/10/06 11:55:07;;;;;;;3.45;0.80;;;13.50;99.90;;;;;;5074184;28;20036;-61
2021/10/06 11:57:32;;;;;;;1.77;1.08;;;13.60;99.90;;;;;;5073755;28;20036;-59
2021/10/06 11:59:58;;;;;;;3.35;0.73;;;13.70;99.90;;;;;;5073691;28;20033;-61
2021/10/06 12:02:23;;;;;;;3.85;0.57;;;13.70;99.90;;;;;;5072588;28;20496;-60
2021/10/06 12:04:56;;;;;;;3.30;0.60;;;13.60;99.90;;;;;;5073571;28;20071;-60
2021/10/06 12:07:23;;;;;;;2.40;0.50;;;13.60;99.90;;;;;;5072412;28;20086;-61
2021/10/06 12:09:55;;;;;;;1.75;0.60;;;13.60;99.90;;;;;;5068877;28;20036;-61
2021/10/06 12:12:38;;;;;;;1.23;0.68;;;13.50;99.90;;;;;;5073035;28;20021;-58
2021/10/06 12:15:05;;;;;;;2.05;0.40;;;13.40;99.90;;;;;;5072073;28;20031;-61
2021/10/06 12:17:45;;;;;;;3.13;0.60;;;13.40;99.90;;;;;;5070665;28;20056;-60
2021/10/06 12:20:14;;;;;;;1.98;0.70;;;13.40;99.90;;;;;;5072389;28;20052;-61
2021/10/06 12:22:46;;;;;;;1.98;0.88;;;13.40;99.90;;;;;;5073143;28;20027;-61
2021/10/06 12:25:13;;;;;;;2.08;0.60;;;13.40;99.90;;;;;;5072640;28;20024;-58
2021/10/06 12:27:42;;;;;;;1.75;0.50;;;13.30;99.90;;;;;;5073434;28;20076;-57
2021/10/06 12:30:29;;;;;;;1.20;0.43;;;13.30;99.90;;;;;;5072472;28;20082;-61
2021/10/06 12:33:10;;;;;;;1.00;0.50;;;13.20;99.90;;;;;;5073399;28;20025;-59
2021/10/06 12:35:40;;;;;;;0.40;0.40;;;13.20;99.90;;;;;;5072611;28;20074;-58
2021/10/06 12:38:06;;;;;;;0.93;0.52;;;13.20;99.90;;;;;;5071321;28;20029;-59
2021/10/06 12:40:41;;;;;;;1.40;0.40;;;13.30;99.90;;;;;;5072539;28;20033;-61
2021/10/06 12:43:13;;;;;;;1.48;0.65;;;13.40;99.90;;;;;;5072345;28;20052;-58
2021/10/06 12:46:05;;;;;;;0.55;0.47;;;13.50;99.90;;;;;;5071746;28;20511;-59
2021/10/06 12:48:44;;;;;;;1.08;0.52;;;13.70;99.90;;;;;;5072295;28;20035;-59